AirNav   ProFlight Series 2 Aviation Headset
 
 580 users online  

33FD R O Ranch Airport
Mayo, Florida, USA

GOING TO MAYO?


FAA INFORMATION EFFECTIVE 18 JUNE 2020

Location

FAA Identifier: 33FD
Lat/Long: 29-54-51.8020N 083-15-59.4930W
29-54.863367N 083-15.991550W
29.9143894,-83.2665258
(estimated)
Elevation: 50 ft. / 15 m (estimated)
Variation: 03W (1990)
From city: 12 miles SW of MAYO, FL
Time zone: UTC -4 (UTC -5 during Standard Time)
Zip code: 32066

Airport Operations

Airport use: Private use. Permission required prior to landing
Activation date: 10/1991
Control tower: no
ARTCC: JACKSONVILLE CENTER
FSS: GAINESVILLE FLIGHT SERVICE STATION
Attendance: UNATNDD
Wind indicator: yes
Segmented circle: no

Airport Communications

WX AWOS-3PT at CTY (19 nm SE): 120.775 (352-498-0221)
WX AWOS-3PT at FPY (19 nm NW): 118.375 (850-838-3526)

Nearby radio navigation aids

VOR radial/distance  VOR name  Freq  Var
CTYr331/22.1CROSS CITY VORTAC112.0002W

 
NDB name  Hdg/Dist  Freq  Var  ID
LAKE CITY249/39.320403WLCQ .-.. -.-. --.-

Airport Services

Runway Information

Runway 17/35

Dimensions: 2500 x 100 ft. / 762 x 30 m
Surface: turf
RUNWAY 17  RUNWAY 35
Traffic pattern: leftleft
Displaced threshold: 750 ft.75 ft.
Obstructions: 70 ft. trees, 400 ft. from runway30 ft. brush, 375 ft. from runway

Airport Ownership and Management from official FAA records

Ownership: Privately-owned
Owner: SUWANNEE RIVER WATER MGMT DISTRICT
9225 CR 49
LIVE OAK, FL 32606
Phone 386-362-1001
Manager: WILLIAM MCKINSTRY
9225 CR 49
LIVE OAK, FL 32606
Phone 386-362-1001

Additional Remarks

FOR CD CTC JACKSONVILLE ARTCC AT 904-845-1592.

Instrument Procedures

There are no published instrument procedures at 33FD.

Some nearby airports with instrument procedures:

KCTY - Cross City Airport (19 nm SE)
KFPY - Perry-Foley Airport (19 nm NW)
24J - Suwannee County Airport (26 nm NE)
KLCQ - Lake City Gateway Airport (39 nm NE)
KVLD - Valdosta Regional Airport (52 nm N)
 
Loc | Ops | Rwys | IFR | FBO | Links
Com | Nav | Svcs | Stats | Notes
Area around 33FD (R O Ranch Airport)
 
Road maps at: MapQuest Bing Google
 
Aerial photo
No photo
 
Sectional chart

 
Airport distance calculator
Flying to R O Ranch Airport? Find the distance to fly.

From to 33FD

Sunrise and sunset
Times for 05-Jul-2020
 Local
(UTC-4)
 Zulu
(UTC)
Morning civil twilight06:1210:12
Sunrise06:3910:39
Sunset20:3700:37
Evening civil twilight21:0401:04

Current date and time
Zulu (UTC)  05-Jul-2020 12:34:17
Local (UTC-4)  05-Jul-2020 08:34:17
 
METAR
KFPY 
19nm NW 
051215Z AUTO 00000KT 5SM RA SCT080 OVC095 23/23 A2994 RMK AO2 LTG DSNT SE AND S T02340229
KCTY 
24nm S 
051215Z AUTO 12003KT 10SM CLR 23/23 A2994 RMK AO2 T02340229
K24J 
26nm NE 
051215Z AUTO 00000KT 10SM FEW005 23/23 A2994 RMK A01
TAF
NOTAMs
Click for the latest NOTAMs
NOTAMs are issued by the DoD/FAA and will open in a separate window not controlled by AirNav.

 

 
 

Would you like to see your business listed on this page?

 If your business provides an interesting product or service to pilots, flight crews, aircraft, or users of the R O Ranch Airport, you should consider listing it here.  To start the listing process, click on the button below
 
Add a business
 

Other Pages about R O Ranch Airport

Update a link
 
Copyright © AirNav, LLC. All rights reserved. Privacy Policy  Contact